sensor_id;sensor_type;location;lat;lon;timestamp;P1;durP1;ratioP1;P2;durP2;ratioP2
9330;SDS011;4704;50.470;12.072;2023-09-18T00:01:21;3.25;;;3.00;;
9330;SDS011;4704;50.470;12.072;2023-09-18T00:03:49;3.05;;;2.85;;
9330;SDS011;4704;50.470;12.072;2023-09-18T00:06:16;3.45;;;3.15;;
9330;SDS011;4704;50.470;12.072;2023-09-18T00:08:44;2.88;;;2.67;;
9330;SDS011;4704;50.470;12.072;2023-09-18T00:11:13;3.00;;;2.80;;
9330;SDS011;4704;50.470;12.072;2023-09-18T00:13:42;3.10;;;2.90;;
9330;SDS011;4704;50.470;12.072;2023-09-18T00:16:09;3.20;;;2.90;;
9330;SDS011;4704;50.470;12.072;2023-09-18T00:18:38;3.28;;;3.08;;
9330;SDS011;4704;50.470;12.072;2023-09-18T00:21:06;3.47;;;3.25;;
9330;SDS011;4704;50.470;12.072;2023-09-18T00:23:35;3.30;;;3.10;;
9330;SDS011;4704;50.470;12.072;2023-09-18T00:26:02;2.80;;;2.60;;
9330;SDS011;4704;50.470;12.072;2023-09-18T00:28:30;3.35;;;2.80;;
9330;SDS011;4704;50.470;12.072;2023-09-18T00:30:59;2.95;;;2.72;;
9330;SDS011;4704;50.470;12.072;2023-09-18T00:33:26;3.00;;;2.80;;
9330;SDS011;4704;50.470;12.072;2023-09-18T00:35:54;3.22;;;3.03;;
9330;SDS011;4704;50.470;12.072;2023-09-18T00:38:21;3.20;;;2.90;;
9330;SDS011;4704;50.470;12.072;2023-09-18T00:40:49;2.83;;;2.63;;
9330;SDS011;4704;50.470;12.072;2023-09-18T00:43:16;3.78;;;3.25;;
9330;SDS011;4704;50.470;12.072;2023-09-18T00:45:44;3.17;;;2.97;;
9330;SDS011;4704;50.470;12.072;2023-09-18T00:48:14;3.38;;;3.17;;
9330;SDS011;4704;50.470;12.072;2023-09-18T00:50:42;4.00;;;3.58;;
9330;SDS011;4704;50.470;12.072;2023-09-18T00:53:10;3.53;;;3.30;;
9330;SDS011;4704;50.470;12.072;2023-09-18T00:55:38;3.20;;;3.00;;
9330;SDS011;4704;50.470;12.072;2023-09-18T00:58:06;4.13;;;3.30;;
9330;SDS011;4704;50.470;12.072;2023-09-18T01:00:33;4.53;;;3.25;;
9330;SDS011;4704;50.470;12.072;2023-09-18T01:03:01;3.75;;;3.42;;
9330;SDS011;4704;50.470;12.072;2023-09-18T01:05:32;3.50;;;3.20;;
9330;SDS011;4704;50.470;12.072;2023-09-18T01:08:01;4.70;;;3.45;;
9330;SDS011;4704;50.470;12.072;2023-09-18T01:10:32;3.38;;;3.05;;
9330;SDS011;4704;50.470;12.072;2023-09-18T01:13:02;3.17;;;2.95;;
9330;SDS011;4704;50.470;12.072;2023-09-18T01:15:32;3.40;;;3.10;;
9330;SDS011;4704;50.470;12.072;2023-09-18T01:18:01;3.60;;;3.40;;
9330;SDS011;4704;50.470;12.072;2023-09-18T01:20:29;3.15;;;2.95;;
9330;SDS011;4704;50.470;12.072;2023-09-18T01:22:58;3.78;;;3.53;;
9330;SDS011;4704;50.470;12.072;2023-09-18T01:25:25;3.47;;;3.17;;
9330;SDS011;4704;50.470;12.072;2023-09-18T01:27:53;3.10;;;2.90;;
9330;SDS011;4704;50.470;12.072;2023-09-18T01:30:20;3.55;;;3.28;;
9330;SDS011;4704;50.470;12.072;2023-09-18T01:32:49;3.10;;;2.90;;
9330;SDS011;4704;50.470;12.072;2023-09-18T01:35:18;3.20;;;3.00;;
9330;SDS011;4704;50.470;12.072;2023-09-18T01:37:48;3.28;;;3.08;;
9330;SDS011;4704;50.470;12.072;2023-09-18T01:40:17;3.47;;;3.28;;
9330;SDS011;4704;50.470;12.072;2023-09-18T01:42:45;3.70;;;3.40;;
9330;SDS011;4704;50.470;12.072;2023-09-18T01:45:13;3.20;;;3.00;;
9330;SDS011;4704;50.470;12.072;2023-09-18T01:47:40;3.53;;;3.30;;
9330;SDS011;4704;50.470;12.072;2023-09-18T01:50:08;3.30;;;3.10;;
9330;SDS011;4704;50.470;12.072;2023-09-18T01:52:35;3.40;;;3.20;;
9330;SDS011;4704;50.470;12.072;2023-09-18T01:55:04;3.58;;;3.28;;
9330;SDS011;4704;50.470;12.072;2023-09-18T01:57:34;3.42;;;3.22;;
9330;SDS011;4704;50.470;12.072;2023-09-18T02:00:01;3.30;;;3.00;;
9330;SDS011;4704;50.470;12.072;2023-09-18T02:02:33;3.33;;;3.13;;
9330;SDS011;4704;50.470;12.072;2023-09-18T02:05:00;3.28;;;2.97;;
9330;SDS011;4704;50.470;12.072;2023-09-18T02:07:28;3.20;;;3.00;;
9330;SDS011;4704;50.470;12.072;2023-09-18T02:09:56;3.35;;;3.00;;
9330;SDS011;4704;50.470;12.072;2023-09-18T02:12:24;2.97;;;2.78;;
9330;SDS011;4704;50.470;12.072;2023-09-18T02:14:53;3.47;;;3.28;;
9330;SDS011;4704;50.470;12.072;2023-09-18T02:17:22;3.20;;;3.00;;
9330;SDS011;4704;50.470;12.072;2023-09-18T02:19:49;3.40;;;3.10;;
9330;SDS011;4704;50.470;12.072;2023-09-18T02:22:17;3.17;;;2.97;;
9330;SDS011;4704;50.470;12.072;2023-09-18T02:24:45;3.28;;;3.08;;
9330;SDS011;4704;50.470;12.072;2023-09-18T02:27:12;3.17;;;2.97;;
9330;SDS011;4704;50.470;12.072;2023-09-18T02:29:40;3.15;;;2.90;;
9330;SDS011;4704;50.470;12.072;2023-09-18T02:32:08;3.50;;;3.30;;
9330;SDS011;4704;50.470;12.072;2023-09-18T02:34:36;3.88;;;3.63;;
9330;SDS011;4704;50.470;12.072;2023-09-18T02:37:04;3.00;;;2.80;;
9330;SDS011;4704;50.470;12.072;2023-09-18T02:39:31;3.20;;;3.00;;
9330;SDS011;4704;50.470;12.072;2023-09-18T02:41:58;3.30;;;3.10;;
9330;SDS011;4704;50.470;12.072;2023-09-18T02:44:26;3.60;;;3.30;;
9330;SDS011;4704;50.470;12.072;2023-09-18T02:46:53;3.30;;;3.10;;
9330;SDS011;4704;50.470;12.072;2023-09-18T02:49:22;3.70;;;3.40;;
9330;SDS011;4704;50.470;12.072;2023-09-18T02:51:50;3.90;;;3.60;;
9330;SDS011;4704;50.470;12.072;2023-09-18T02:54:17;3.30;;;3.10;;
9330;SDS011;4704;50.470;12.072;2023-09-18T02:56:44;3.67;;;3.38;;
9330;SDS011;4704;50.470;12.072;2023-09-18T02:59:12;3.60;;;3.30;;
9330;SDS011;4704;50.470;12.072;2023-09-18T03:01:40;3.60;;;3.30;;
9330;SDS011;4704;50.470;12.072;2023-09-18T03:04:07;3.63;;;3.33;;
9330;SDS011;4704;50.470;12.072;2023-09-18T03:06:37;3.47;;;3.28;;
9330;SDS011;4704;50.470;12.072;2023-09-18T03:09:06;3.40;;;3.20;;
9330;SDS011;4704;50.470;12.072;2023-09-18T03:11:33;3.33;;;3.10;;
9330;SDS011;4704;50.470;12.072;2023-09-18T03:14:01;3.90;;;3.60;;
9330;SDS011;4704;50.470;12.072;2023-09-18T03:16:29;3.63;;;3.33;;
9330;SDS011;4704;50.470;12.072;2023-09-18T03:18:58;3.40;;;3.20;;
9330;SDS011;4704;50.470;12.072;2023-09-18T03:21:25;3.60;;;3.40;;
9330;SDS011;4704;50.470;12.072;2023-09-18T03:23:54;3.50;;;3.20;;
9330;SDS011;4704;50.470;12.072;2023-09-18T03:26:23;3.80;;;3.50;;
9330;SDS011;4704;50.470;12.072;2023-09-18T03:28:50;3.40;;;3.20;;
9330;SDS011;4704;50.470;12.072;2023-09-18T03:31:18;3.53;;;3.30;;
9330;SDS011;4704;50.470;12.072;2023-09-18T03:33:45;3.60;;;3.30;;
9330;SDS011;4704;50.470;12.072;2023-09-18T03:36:13;3.38;;;3.08;;
9330;SDS011;4704;50.470;12.072;2023-09-18T03:38:40;3.25;;;3.05;;
9330;SDS011;4704;50.470;12.072;2023-09-18T03:41:09;3.72;;;3.42;;
9330;SDS011;4704;50.470;12.072;2023-09-18T03:43:37;3.45;;;3.20;;
9330;SDS011;4704;50.470;12.072;2023-09-18T03:46:04;3.67;;;3.30;;
9330;SDS011;4704;50.470;12.072;2023-09-18T03:48:32;4.03;;;3.72;;
9330;SDS011;4704;50.470;12.072;2023-09-18T03:51:02;4.10;;;3.80;;
9330;SDS011;4704;50.470;12.072;2023-09-18T03:53:30;3.53;;;3.33;;
9330;SDS011;4704;50.470;12.072;2023-09-18T03:55:58;3.70;;;3.40;;
9330;SDS011;4704;50.470;12.072;2023-09-18T03:58:27;3.58;;;3.30;;
9330;SDS011;4704;50.470;12.072;2023-09-18T04:00:55;3.80;;;3.50;;
9330;SDS011;4704;50.470;12.072;2023-09-18T04:03:22;3.85;;;3.50;;
9330;SDS011;4704;50.470;12.072;2023-09-18T04:05:50;3.95;;;3.45;;
9330;SDS011;4704;50.470;12.072;2023-09-18T04:08:17;3.33;;;3.08;;
9330;SDS011;4704;50.470;12.072;2023-09-18T04:10:45;3.20;;;3.00;;
9330;SDS011;4704;50.470;12.072;2023-09-18T04:13:12;3.20;;;3.00;;
9330;SDS011;4704;50.470;12.072;2023-09-18T04:15:41;3.30;;;3.00;;
9330;SDS011;4704;50.470;12.072;2023-09-18T04:18:11;3.17;;;2.97;;
9330;SDS011;4704;50.470;12.072;2023-09-18T04:20:38;3.08;;;2.78;;
9330;SDS011;4704;50.470;12.072;2023-09-18T04:23:20;3.40;;;3.05;;
9330;SDS011;4704;50.470;12.072;2023-09-18T04:25:48;4.28;;;2.97;;
9330;SDS011;4704;50.470;12.072;2023-09-18T04:28:15;3.33;;;2.97;;
9330;SDS011;4704;50.470;12.072;2023-09-18T04:30:45;3.15;;;2.92;;
9330;SDS011;4704;50.470;12.072;2023-09-18T04:33:12;3.03;;;2.83;;
9330;SDS011;4704;50.470;12.072;2023-09-18T04:35:40;2.95;;;2.75;;
9330;SDS011;4704;50.470;12.072;2023-09-18T04:38:07;3.08;;;2.88;;
9330;SDS011;4704;50.470;12.072;2023-09-18T04:40:35;3.20;;;2.97;;
9330;SDS011;4704;50.470;12.072;2023-09-18T04:43:03;3.05;;;2.85;;
9330;SDS011;4704;50.470;12.072;2023-09-18T04:45:30;3.60;;;3.30;;
9330;SDS011;4704;50.470;12.072;2023-09-18T04:47:59;3.28;;;3.00;;
9330;SDS011;4704;50.470;12.072;2023-09-18T04:50:28;3.17;;;2.97;;
9330;SDS011;4704;50.470;12.072;2023-09-18T04:52:55;3.22;;;3.03;;
9330;SDS011;4704;50.470;12.072;2023-09-18T04:55:23;3.28;;;3.08;;
9330;SDS011;4704;50.470;12.072;2023-09-18T04:57:50;3.28;;;3.00;;
9330;SDS011;4704;50.470;12.072;2023-09-18T05:00:18;3.17;;;2.97;;
9330;SDS011;4704;50.470;12.072;2023-09-18T05:02:48;3.00;;;2.80;;
9330;SDS011;4704;50.470;12.072;2023-09-18T05:05:17;2.83;;;2.63;;
9330;SDS011;4704;50.470;12.072;2023-09-18T05:07:45;2.88;;;2.67;;
9330;SDS011;4704;50.470;12.072;2023-09-18T05:10:12;3.25;;;3.03;;
9330;SDS011;4704;50.470;12.072;2023-09-18T05:12:40;3.28;;;3.08;;
9330;SDS011;4704;50.470;12.072;2023-09-18T05:15:07;3.08;;;2.88;;
9330;SDS011;4704;50.470;12.072;2023-09-18T05:17:41;3.28;;;3.08;;
9330;SDS011;4704;50.470;12.072;2023-09-18T05:20:09;3.38;;;3.08;;
9330;SDS011;4704;50.470;12.072;2023-09-18T05:22:40;2.78;;;2.58;;
9330;SDS011;4704;50.470;12.072;2023-09-18T05:25:08;3.17;;;2.97;;
9330;SDS011;4704;50.470;12.072;2023-09-18T05:27:36;2.90;;;2.70;;
9330;SDS011;4704;50.470;12.072;2023-09-18T05:30:10;2.97;;;2.78;;
9330;SDS011;4704;50.470;12.072;2023-09-18T05:32:38;3.50;;;3.20;;
9330;SDS011;4704;50.470;12.072;2023-09-18T05:35:05;5.20;;;3.00;;
9330;SDS011;4704;50.470;12.072;2023-09-18T05:37:35;2.90;;;2.70;;
9330;SDS011;4704;50.470;12.072;2023-09-18T05:40:05;3.20;;;3.00;;
9330;SDS011;4704;50.470;12.072;2023-09-18T05:42:34;4.10;;;2.83;;
9330;SDS011;4704;50.470;12.072;2023-09-18T05:45:02;3.25;;;2.95;;
9330;SDS011;4704;50.470;12.072;2023-09-18T05:47:30;3.10;;;2.90;;
9330;SDS011;4704;50.470;12.072;2023-09-18T05:49:58;3.00;;;2.80;;
9330;SDS011;4704;50.470;12.072;2023-09-18T05:52:25;3.22;;;3.03;;
9330;SDS011;4704;50.470;12.072;2023-09-18T05:54:53;3.08;;;2.83;;
9330;SDS011;4704;50.470;12.072;2023-09-18T05:57:21;3.58;;;3.28;;
9330;SDS011;4704;50.470;12.072;2023-09-18T05:59:49;4.18;;;3.40;;
9330;SDS011;4704;50.470;12.072;2023-09-18T06:02:17;3.05;;;2.85;;
9330;SDS011;4704;50.470;12.072;2023-09-18T06:04:46;3.53;;;3.17;;
9330;SDS011;4704;50.470;12.072;2023-09-18T06:07:13;3.50;;;3.20;;
9330;SDS011;4704;50.470;12.072;2023-09-18T06:09:41;3.78;;;3.47;;
9330;SDS011;4704;50.470;12.072;2023-09-18T06:12:08;3.55;;;3.25;;
9330;SDS011;4704;50.470;12.072;2023-09-18T06:14:37;4.13;;;3.42;;
9330;SDS011;4704;50.470;12.072;2023-09-18T06:17:05;3.42;;;3.22;;
9330;SDS011;4704;50.470;12.072;2023-09-18T06:19:32;3.60;;;3.40;;
9330;SDS011;4704;50.470;12.072;2023-09-18T06:22:00;3.53;;;3.30;;
9330;SDS011;4704;50.470;12.072;2023-09-18T06:24:27;3.20;;;3.00;;
9330;SDS011;4704;50.470;12.072;2023-09-18T06:26:55;3.50;;;3.28;;
9330;SDS011;4704;50.470;12.072;2023-09-18T06:29:23;3.97;;;3.60;;
9330;SDS011;4704;50.470;12.072;2023-09-18T06:31:51;3.35;;;3.15;;
9330;SDS011;4704;50.470;12.072;2023-09-18T06:34:19;4.03;;;3.72;;
9330;SDS011;4704;50.470;12.072;2023-09-18T06:36:46;3.92;;;3.63;;
9330;SDS011;4704;50.470;12.072;2023-09-18T06:39:14;3.50;;;3.13;;
9330;SDS011;4704;50.470;12.072;2023-09-18T06:41:41;3.50;;;3.20;;
9330;SDS011;4704;50.470;12.072;2023-09-18T06:44:09;3.78;;;3.47;;
9330;SDS011;4704;50.470;12.072;2023-09-18T06:46:36;3.65;;;3.35;;
9330;SDS011;4704;50.470;12.072;2023-09-18T06:49:06;3.38;;;3.08;;
9330;SDS011;4704;50.470;12.072;2023-09-18T06:51:33;3.80;;;3.50;;
9330;SDS011;4704;50.470;12.072;2023-09-18T06:54:01;3.30;;;3.10;;
9330;SDS011;4704;50.470;12.072;2023-09-18T06:56:28;3.50;;;3.20;;
9330;SDS011;4704;50.470;12.072;2023-09-18T06:58:56;3.22;;;3.03;;
9330;SDS011;4704;50.470;12.072;2023-09-18T07:01:23;3.58;;;3.28;;
9330;SDS011;4704;50.470;12.072;2023-09-18T07:03:52;3.72;;;3.50;;
9330;SDS011;4704;50.470;12.072;2023-09-18T07:06:21;3.42;;;3.13;;
9330;SDS011;4704;50.470;12.072;2023-09-18T07:08:49;3.90;;;3.60;;
9330;SDS011;4704;50.470;12.072;2023-09-18T07:11:16;3.53;;;3.22;;
9330;SDS011;4704;50.470;12.072;2023-09-18T07:13:44;3.80;;;3.50;;
9330;SDS011;4704;50.470;12.072;2023-09-18T07:16:11;3.90;;;3.60;;
9330;SDS011;4704;50.470;12.072;2023-09-18T07:18:39;4.82;;;3.35;;
9330;SDS011;4704;50.470;12.072;2023-09-18T07:21:07;3.53;;;3.33;;
9330;SDS011;4704;50.470;12.072;2023-09-18T07:23:35;3.95;;;3.40;;
9330;SDS011;4704;50.470;12.072;2023-09-18T07:26:03;3.70;;;3.40;;
9330;SDS011;4704;50.470;12.072;2023-09-18T07:31:03;3.58;;;3.33;;
9330;SDS011;4704;50.470;12.072;2023-09-18T07:33:30;3.97;;;3.58;;
9330;SDS011;4704;50.470;12.072;2023-09-18T07:35:57;3.67;;;3.22;;
9330;SDS011;4704;50.470;12.072;2023-09-18T07:38:25;3.50;;;3.20;;
9330;SDS011;4704;50.470;12.072;2023-09-18T07:40:54;3.08;;;2.88;;
9330;SDS011;4704;50.470;12.072;2023-09-18T07:43:21;3.80;;;3.50;;
9330;SDS011;4704;50.470;12.072;2023-09-18T07:45:48;4.93;;;3.65;;
9330;SDS011;4704;50.470;12.072;2023-09-18T07:48:16;3.88;;;3.58;;
9330;SDS011;4704;50.470;12.072;2023-09-18T07:50:45;3.70;;;3.40;;
9330;SDS011;4704;50.470;12.072;2023-09-18T07:53:14;3.72;;;3.42;;
9330;SDS011;4704;50.470;12.072;2023-09-18T07:55:42;3.40;;;3.10;;
9330;SDS011;4704;50.470;12.072;2023-09-18T07:58:11;3.40;;;3.20;;
9330;SDS011;4704;50.470;12.072;2023-09-18T08:00:39;3.45;;;3.15;;
9330;SDS011;4704;50.470;12.072;2023-09-18T08:03:06;3.40;;;3.20;;
9330;SDS011;4704;50.470;12.072;2023-09-18T08:05:34;3.53;;;3.22;;
9330;SDS011;4704;50.470;12.072;2023-09-18T08:08:01;3.28;;;2.97;;
9330;SDS011;4704;50.470;12.072;2023-09-18T08:10:30;3.63;;;3.33;;
9330;SDS011;4704;50.470;12.072;2023-09-18T08:12:58;3.58;;;3.28;;
9330;SDS011;4704;50.470;12.072;2023-09-18T08:15:26;3.60;;;3.30;;
9330;SDS011;4704;50.470;12.072;2023-09-18T08:17:55;3.67;;;3.38;;
9330;SDS011;4704;50.470;12.072;2023-09-18T08:20:25;3.75;;;3.55;;
9330;SDS011;4704;50.470;12.072;2023-09-18T08:22:54;3.60;;;3.30;;
9330;SDS011;4704;50.470;12.072;2023-09-18T08:25:21;3.72;;;3.42;;
9330;SDS011;4704;50.470;12.072;2023-09-18T08:27:49;3.63;;;3.42;;
9330;SDS011;4704;50.470;12.072;2023-09-18T08:30:16;3.50;;;3.30;;
9330;SDS011;4704;50.470;12.072;2023-09-18T08:32:47;3.88;;;3.60;;
9330;SDS011;4704;50.470;12.072;2023-09-18T08:35:15;3.78;;;3.47;;
9330;SDS011;4704;50.470;12.072;2023-09-18T08:37:42;3.95;;;3.55;;
9330;SDS011;4704;50.470;12.072;2023-09-18T08:40:10;3.60;;;3.40;;
9330;SDS011;4704;50.470;12.072;2023-09-18T08:42:39;4.35;;;4.05;;
9330;SDS011;4704;50.470;12.072;2023-09-18T08:45:07;4.18;;;3.88;;
9330;SDS011;4704;50.470;12.072;2023-09-18T08:47:35;3.70;;;3.40;;
9330;SDS011;4704;50.470;12.072;2023-09-18T08:50:06;3.70;;;3.40;;
9330;SDS011;4704;50.470;12.072;2023-09-18T08:52:35;4.00;;;3.70;;
9330;SDS011;4704;50.470;12.072;2023-09-18T08:55:03;5.55;;;3.70;;
9330;SDS011;4704;50.470;12.072;2023-09-18T08:57:31;3.63;;;3.33;;
9330;SDS011;4704;50.470;12.072;2023-09-18T09:00:01;3.78;;;3.47;;
9330;SDS011;4704;50.470;12.072;2023-09-18T09:02:31;3.70;;;3.40;;
9330;SDS011;4704;50.470;12.072;2023-09-18T09:04:58;4.10;;;3.80;;
9330;SDS011;4704;50.470;12.072;2023-09-18T09:07:27;3.58;;;3.38;;
9330;SDS011;4704;50.470;12.072;2023-09-18T09:09:56;4.00;;;3.70;;
9330;SDS011;4704;50.470;12.072;2023-09-18T09:15:09;4.22;;;3.92;;
9330;SDS011;4704;50.470;12.072;2023-09-18T09:17:37;4.05;;;3.75;;
9330;SDS011;4704;50.470;12.072;2023-09-18T09:20:08;4.20;;;3.90;;
9330;SDS011;4704;50.470;12.072;2023-09-18T09:22:37;4.40;;;4.00;;
9330;SDS011;4704;50.470;12.072;2023-09-18T09:25:21;4.20;;;3.90;;
9330;SDS011;4704;50.470;12.072;2023-09-18T09:27:48;4.15;;;3.85;;
9330;SDS011;4704;50.470;12.072;2023-09-18T09:30:18;4.82;;;4.07;;
9330;SDS011;4704;50.470;12.072;2023-09-18T09:32:47;4.40;;;4.10;;
9330;SDS011;4704;50.470;12.072;2023-09-18T09:35:20;4.65;;;4.25;;
9330;SDS011;4704;50.470;12.072;2023-09-18T09:37:49;4.50;;;4.20;;
9330;SDS011;4704;50.470;12.072;2023-09-18T09:40:19;4.68;;;4.28;;
9330;SDS011;4704;50.470;12.072;2023-09-18T09:42:46;4.82;;;4.45;;
9330;SDS011;4704;50.470;12.072;2023-09-18T09:45:14;4.85;;;4.38;;
9330;SDS011;4704;50.470;12.072;2023-09-18T09:47:42;4.85;;;4.45;;
9330;SDS011;4704;50.470;12.072;2023-09-18T09:50:10;4.60;;;4.30;;
9330;SDS011;4704;50.470;12.072;2023-09-18T09:52:42;4.85;;;4.45;;
9330;SDS011;4704;50.470;12.072;2023-09-18T09:55:21;4.93;;;4.38;;
9330;SDS011;4704;50.470;12.072;2023-09-18T09:57:49;5.30;;;4.80;;
9330;SDS011;4704;50.470;12.072;2023-09-18T10:00:17;5.47;;;4.60;;
9330;SDS011;4704;50.470;12.072;2023-09-18T10:02:54;5.13;;;4.68;;
9330;SDS011;4704;50.470;12.072;2023-09-18T10:05:24;5.90;;;4.70;;
9330;SDS011;4704;50.470;12.072;2023-09-18T10:07:54;6.15;;;4.35;;
9330;SDS011;4704;50.470;12.072;2023-09-18T10:10:31;4.70;;;4.30;;
9330;SDS011;4704;50.470;12.072;2023-09-18T10:13:00;4.75;;;4.35;;
9330;SDS011;4704;50.470;12.072;2023-09-18T10:15:31;4.63;;;4.22;;
9330;SDS011;4704;50.470;12.072;2023-09-18T10:18:04;6.60;;;4.05;;
9330;SDS011;4704;50.470;12.072;2023-09-18T10:20:35;4.55;;;4.15;;
9330;SDS011;4704;50.470;12.072;2023-09-18T10:23:03;4.40;;;4.00;;
9330;SDS011;4704;50.470;12.072;2023-09-18T10:25:34;4.63;;;4.15;;
9330;SDS011;4704;50.470;12.072;2023-09-18T10:28:02;4.63;;;3.63;;
9330;SDS011;4704;50.470;12.072;2023-09-18T10:30:32;4.85;;;3.97;;
9330;SDS011;4704;50.470;12.072;2023-09-18T10:33:02;4.03;;;3.63;;
9330;SDS011;4704;50.470;12.072;2023-09-18T10:35:32;4.55;;;3.25;;
9330;SDS011;4704;50.470;12.072;2023-09-18T10:38:01;6.47;;;3.40;;
9330;SDS011;4704;50.470;12.072;2023-09-18T10:40:29;6.05;;;3.40;;
9330;SDS011;4704;50.470;12.072;2023-09-18T10:42:59;4.07;;;2.95;;
9330;SDS011;4704;50.470;12.072;2023-09-18T10:45:27;4.55;;;2.80;;
9330;SDS011;4704;50.470;12.072;2023-09-18T10:47:55;3.55;;;2.70;;
9330;SDS011;4704;50.470;12.072;2023-09-18T10:50:23;5.55;;;2.80;;
9330;SDS011;4704;50.470;12.072;2023-09-18T10:52:51;3.70;;;2.50;;
9330;SDS011;4704;50.470;12.072;2023-09-18T10:55:18;4.25;;;2.60;;
9330;SDS011;4704;50.470;12.072;2023-09-18T10:57:52;4.20;;;2.50;;
9330;SDS011;4704;50.470;12.072;2023-09-18T11:00:22;3.67;;;2.63;;
9330;SDS011;4704;50.470;12.072;2023-09-18T11:02:52;3.15;;;2.22;;
9330;SDS011;4704;50.470;12.072;2023-09-18T11:05:31;3.20;;;2.28;;
9330;SDS011;4704;50.470;12.072;2023-09-18T11:10:54;2.92;;;2.22;;
9330;SDS011;4704;50.470;12.072;2023-09-18T11:13:27;3.83;;;2.20;;
9330;SDS011;4704;50.470;12.072;2023-09-18T11:16:00;3.17;;;2.17;;
9330;SDS011;4704;50.470;12.072;2023-09-18T11:18:32;4.13;;;2.03;;
9330;SDS011;4704;50.470;12.072;2023-09-18T11:21:06;3.47;;;2.42;;
9330;SDS011;4704;50.470;12.072;2023-09-18T11:23:34;3.03;;;2.05;;
9330;SDS011;4704;50.470;12.072;2023-09-18T11:26:03;2.60;;;2.40;;
9330;SDS011;4704;50.470;12.072;2023-09-18T11:28:32;2.72;;;1.90;;
9330;SDS011;4704;50.470;12.072;2023-09-18T11:31:00;2.20;;;2.00;;
9330;SDS011;4704;50.470;12.072;2023-09-18T11:33:31;2.15;;;1.90;;
9330;SDS011;4704;50.470;12.072;2023-09-18T11:36:02;2.03;;;1.83;;
9330;SDS011;4704;50.470;12.072;2023-09-18T11:38:30;1.70;;;1.60;;
9330;SDS011;4704;50.470;12.072;2023-09-18T11:40:59;2.33;;;2.03;;
9330;SDS011;4704;50.470;12.072;2023-09-18T11:43:28;2.70;;;1.95;;
9330;SDS011;4704;50.470;12.072;2023-09-18T11:45:56;3.75;;;1.65;;
9330;SDS011;4704;50.470;12.072;2023-09-18T11:48:26;2.17;;;1.98;;
9330;SDS011;4704;50.470;12.072;2023-09-18T11:50:55;3.15;;;2.03;;
9330;SDS011;4704;50.470;12.072;2023-09-18T11:53:23;2.13;;;1.65;;
9330;SDS011;4704;50.470;12.072;2023-09-18T11:55:51;3.70;;;2.20;;
9330;SDS011;4704;50.470;12.072;2023-09-18T11:58:19;2.55;;;2.10;;
9330;SDS011;4704;50.470;12.072;2023-09-18T12:00:48;5.22;;;2.30;;
9330;SDS011;4704;50.470;12.072;2023-09-18T12:03:16;3.50;;;2.05;;
9330;SDS011;4704;50.470;12.072;2023-09-18T12:05:56;2.22;;;2.08;;
9330;SDS011;4704;50.470;12.072;2023-09-18T12:08:24;2.63;;;1.98;;
9330;SDS011;4704;50.470;12.072;2023-09-18T12:10:53;3.15;;;2.00;;
9330;SDS011;4704;50.470;12.072;2023-09-18T12:13:20;2.40;;;1.67;;
9330;SDS011;4704;50.470;12.072;2023-09-18T12:15:48;2.13;;;1.90;;
9330;SDS011;4704;50.470;12.072;2023-09-18T12:18:15;2.67;;;1.90;;
9330;SDS011;4704;50.470;12.072;2023-09-18T12:20:46;2.45;;;1.85;;
9330;SDS011;4704;50.470;12.072;2023-09-18T12:23:15;4.05;;;2.10;;
9330;SDS011;4704;50.470;12.072;2023-09-18T12:25:44;1.92;;;1.73;;
9330;SDS011;4704;50.470;12.072;2023-09-18T12:28:13;3.00;;;2.00;;
9330;SDS011;4704;50.470;12.072;2023-09-18T12:30:41;2.13;;;1.88;;
9330;SDS011;4704;50.470;12.072;2023-09-18T12:33:11;2.40;;;2.20;;
9330;SDS011;4704;50.470;12.072;2023-09-18T12:35:40;2.63;;;2.15;;
9330;SDS011;4704;50.470;12.072;2023-09-18T12:38:18;2.63;;;1.90;;
9330;SDS011;4704;50.470;12.072;2023-09-18T12:40:49;2.92;;;1.92;;
9330;SDS011;4704;50.470;12.072;2023-09-18T12:43:17;2.53;;;1.83;;
9330;SDS011;4704;50.470;12.072;2023-09-18T12:45:44;2.83;;;1.92;;
9330;SDS011;4704;50.470;12.072;2023-09-18T12:48:13;2.22;;;1.75;;
9330;SDS011;4704;50.470;12.072;2023-09-18T12:50:40;2.53;;;1.80;;
9330;SDS011;4704;50.470;12.072;2023-09-18T12:53:08;3.30;;;2.10;;
9330;SDS011;4704;50.470;12.072;2023-09-18T12:55:38;2.30;;;1.88;;
9330;SDS011;4704;50.470;12.072;2023-09-18T12:58:06;1.90;;;1.63;;
9330;SDS011;4704;50.470;12.072;2023-09-18T13:00:34;2.88;;;1.90;;
9330;SDS011;4704;50.470;12.072;2023-09-18T13:03:02;3.15;;;1.95;;
9330;SDS011;4704;50.470;12.072;2023-09-18T13:05:30;3.03;;;1.90;;
9330;SDS011;4704;50.470;12.072;2023-09-18T13:08:01;3.90;;;1.65;;
9330;SDS011;4704;50.470;12.072;2023-09-18T13:10:29;2.55;;;1.80;;
9330;SDS011;4704;50.470;12.072;2023-09-18T13:12:57;1.98;;;1.70;;
9330;SDS011;4704;50.470;12.072;2023-09-18T13:15:25;2.92;;;1.52;;
9330;SDS011;4704;50.470;12.072;2023-09-18T13:17:54;2.65;;;1.80;;
9330;SDS011;4704;50.470;12.072;2023-09-18T13:20:22;1.80;;;1.70;;
9330;SDS011;4704;50.470;12.072;2023-09-18T13:22:51;1.60;;;1.50;;
9330;SDS011;4704;50.470;12.072;2023-09-18T13:25:20;2.20;;;1.63;;
9330;SDS011;4704;50.470;12.072;2023-09-18T13:27:47;2.60;;;1.92;;
9330;SDS011;4704;50.470;12.072;2023-09-18T13:30:16;2.58;;;1.73;;
9330;SDS011;4704;50.470;12.072;2023-09-18T13:32:46;1.80;;;1.67;;
9330;SDS011;4704;50.470;12.072;2023-09-18T13:35:14;1.70;;;1.60;;
9330;SDS011;4704;50.470;12.072;2023-09-18T13:37:42;2.00;;;1.40;;
9330;SDS011;4704;50.470;12.072;2023-09-18T13:40:10;2.10;;;1.55;;
9330;SDS011;4704;50.470;12.072;2023-09-18T13:42:38;1.92;;;1.67;;
9330;SDS011;4704;50.470;12.072;2023-09-18T13:45:06;3.00;;;1.85;;
9330;SDS011;4704;50.470;12.072;2023-09-18T13:47:35;2.70;;;1.42;;
9330;SDS011;4704;50.470;12.072;2023-09-18T13:50:03;2.33;;;1.67;;
9330;SDS011;4704;50.470;12.072;2023-09-18T13:52:31;3.70;;;1.85;;
9330;SDS011;4704;50.470;12.072;2023-09-18T13:54:59;2.35;;;1.50;;
9330;SDS011;4704;50.470;12.072;2023-09-18T13:57:30;3.97;;;1.60;;
9330;SDS011;4704;50.470;12.072;2023-09-18T13:59:59;2.00;;;1.55;;
9330;SDS011;4704;50.470;12.072;2023-09-18T14:02:30;2.53;;;1.60;;
9330;SDS011;4704;50.470;12.072;2023-09-18T14:04:59;2.20;;;1.48;;
9330;SDS011;4704;50.470;12.072;2023-09-18T14:07:26;1.92;;;1.33;;
9330;SDS011;4704;50.470;12.072;2023-09-18T14:09:54;1.85;;;1.58;;
9330;SDS011;4704;50.470;12.072;2023-09-18T14:12:21;2.10;;;1.50;;
9330;SDS011;4704;50.470;12.072;2023-09-18T14:14:48;1.92;;;1.55;;
9330;SDS011;4704;50.470;12.072;2023-09-18T14:17:16;2.00;;;1.50;;
9330;SDS011;4704;50.470;12.072;2023-09-18T14:19:46;1.73;;;1.27;;
9330;SDS011;4704;50.470;12.072;2023-09-18T14:22:15;2.22;;;1.30;;
9330;SDS011;4704;50.470;12.072;2023-09-18T14:24:43;1.70;;;1.42;;
9330;SDS011;4704;50.470;12.072;2023-09-18T14:27:10;1.92;;;1.60;;
9330;SDS011;4704;50.470;12.072;2023-09-18T14:29:39;2.75;;;1.40;;
9330;SDS011;4704;50.470;12.072;2023-09-18T14:32:06;1.92;;;1.30;;
9330;SDS011;4704;50.470;12.072;2023-09-18T14:34:34;1.80;;;1.20;;
9330;SDS011;4704;50.470;12.072;2023-09-18T14:37:01;3.08;;;1.50;;
9330;SDS011;4704;50.470;12.072;2023-09-18T14:39:31;2.17;;;1.60;;
9330;SDS011;4704;50.470;12.072;2023-09-18T14:41:58;2.00;;;1.48;;
9330;SDS011;4704;50.470;12.072;2023-09-18T14:44:26;1.95;;;1.25;;
9330;SDS011;4704;50.470;12.072;2023-09-18T14:46:55;2.90;;;1.40;;
9330;SDS011;4704;50.470;12.072;2023-09-18T14:49:22;2.72;;;1.40;;
9330;SDS011;4704;50.470;12.072;2023-09-18T14:51:52;2.22;;;1.20;;
9330;SDS011;4704;50.470;12.072;2023-09-18T14:54:19;2.13;;;1.52;;
9330;SDS011;4704;50.470;12.072;2023-09-18T14:56:49;1.98;;;1.40;;
9330;SDS011;4704;50.470;12.072;2023-09-18T14:59:16;1.60;;;1.10;;
9330;SDS011;4704;50.470;12.072;2023-09-18T15:01:43;1.98;;;1.30;;
9330;SDS011;4704;50.470;12.072;2023-09-18T15:04:13;1.40;;;1.10;;
9330;SDS011;4704;50.470;12.072;2023-09-18T15:06:40;1.33;;;1.10;;
9330;SDS011;4704;50.470;12.072;2023-09-18T15:09:08;2.22;;;1.20;;
9330;SDS011;4704;50.470;12.072;2023-09-18T15:11:35;1.52;;;1.13;;
9330;SDS011;4704;50.470;12.072;2023-09-18T15:14:05;1.25;;;1.15;;
9330;SDS011;4704;50.470;12.072;2023-09-18T15:16:34;2.13;;;1.08;;